createdAt,value
2019-03-29T00:02:19.192Z,103544.49
2019-03-29T00:04:48.053Z,103536.67
2019-03-29T00:07:16.751Z,103540.99
2019-03-29T00:09:45.460Z,103537.94
2019-03-29T00:12:14.333Z,103534.03
2019-03-29T00:14:43.275Z,103531.84
2019-03-29T00:17:11.943Z,103520.55
2019-03-29T00:19:40.759Z,103528.82
2019-03-29T00:22:09.465Z,103527.52
2019-03-29T00:24:38.135Z,103522.27
2019-03-29T00:27:06.984Z,103525.72
2019-03-29T00:29:35.674Z,103517.05
2019-03-29T00:32:04.332Z,103504.43
2019-03-29T00:34:33.157Z,103518.31
2019-03-29T00:37:02.019Z,103513.95
2019-03-29T00:39:30.685Z,103509.19
2019-03-29T00:41:59.548Z,103498.33
2019-03-29T00:44:28.238Z,103508.30
2019-03-29T00:46:56.891Z,103502.19
2019-03-29T00:49:25.714Z,103501.28
2019-03-29T00:51:56.445Z,103500.02
2019-03-29T00:54:25.273Z,103494.78
2019-03-29T00:56:53.973Z,103492.61
2019-03-29T00:59:22.662Z,103486.55
2019-03-29T01:01:53.349Z,103483.51
2019-03-29T01:04:22.148Z,103486.06
2019-03-29T01:06:51.698Z,103476.95
2019-03-29T01:09:20.831Z,103472.63
2019-03-29T01:11:49.855Z,103471.78
2019-03-29T01:14:19.124Z,103472.19
2019-03-29T01:16:48.245Z,103469.14
2019-03-29T01:19:17.379Z,103465.67
2019-03-29T01:21:46.602Z,103465.22
2019-03-29T01:24:16.161Z,103472.98
2019-03-29T01:26:45.282Z,103479.94
2019-03-29T01:29:14.442Z,103466.47
2019-03-29T01:31:46.112Z,103463.83
2019-03-29T01:34:17.966Z,103461.72
2019-03-29T01:36:47.733Z,103460.87
2019-03-29T01:39:17.583Z,103459.97
2019-03-29T01:41:47.181Z,103459.02
2019-03-29T01:44:16.292Z,103454.77
2019-03-29T01:46:45.361Z,103452.61
2019-03-29T01:49:16.027Z,103451.22
2019-03-29T01:51:48.410Z,103456.42
2019-03-29T01:54:17.290Z,103447.25
2019-03-29T01:56:46.126Z,103452.45
2019-03-29T01:59:17.097Z,103452.45
2019-03-29T02:01:46.719Z,103453.30
2019-03-29T02:04:15.826Z,103445.49
2019-03-29T02:06:45.770Z,103448.50
2019-03-29T02:09:17.367Z,103448.09
2019-03-29T02:11:46.860Z,103441.59
2019-03-29T02:14:17.854Z,103438.12
2019-03-29T02:16:47.778Z,103437.24
2019-03-29T02:19:16.664Z,103431.13
2019-03-29T02:21:45.566Z,103431.59
2019-03-29T02:24:16.389Z,103431.17
2019-03-29T02:26:45.377Z,103434.13
2019-03-29T02:29:14.563Z,103436.70
2019-03-29T02:31:45.478Z,103432.35
2019-03-29T02:34:16.907Z,103435.39
2019-03-29T02:36:46.112Z,103432.78
2019-03-29T02:39:15.219Z,103427.98
2019-03-29T02:41:46.605Z,103421.48
2019-03-29T02:44:15.849Z,103429.67
2019-03-29T02:46:44.927Z,103430.06
2019-03-29T02:49:14.247Z,103416.14
2019-03-29T02:51:43.520Z,103422.23
2019-03-29T02:54:12.402Z,103410.94
2019-03-29T02:56:41.078Z,103418.28
2019-03-29T02:59:09.994Z,103416.56
2019-03-29T03:01:38.729Z,103415.67
2019-03-29T03:04:08.286Z,103411.75
2019-03-29T03:06:36.976Z,103419.95
2019-03-29T03:09:13.694Z,103423.84
2019-03-29T03:11:37.756Z,103421.25
2019-03-29T03:14:06.448Z,103420.01
2019-03-29T03:16:35.946Z,103405.27
2019-03-29T03:19:05.769Z,103410.91
2019-03-29T03:21:34.488Z,103418.17
2019-03-29T03:24:03.559Z,103425.52
2019-03-29T03:26:34.360Z,103415.95
2019-03-29T03:29:03.450Z,103424.22
2019-03-29T03:31:32.280Z,103421.52
2019-03-29T03:34:01.167Z,103421.48
2019-03-29T03:36:30.208Z,103419.75
2019-03-29T03:38:59.056Z,103422.80
2019-03-29T03:41:27.911Z,103420.17
2019-03-29T03:43:57.187Z,103416.56
2019-03-29T03:46:25.894Z,103427.44
2019-03-29T03:48:54.678Z,103419.19
2019-03-29T03:51:24.570Z,103430.27
2019-03-29T03:53:53.599Z,103429.82
2019-03-29T03:56:23.351Z,103427.77
2019-03-29T03:58:53.009Z,103426.87
2019-03-29T04:01:22.033Z,103426.89
2019-03-29T04:03:50.867Z,103423.81
2019-03-29T04:06:19.568Z,103422.93
2019-03-29T04:08:48.240Z,103412.02
2019-03-29T04:11:17.060Z,103416.45
2019-03-29T04:13:45.751Z,103428.12
2019-03-29T04:16:14.569Z,103422.03
2019-03-29T04:18:43.411Z,103411.00
2019-03-29T04:21:12.063Z,103430.98
2019-03-29T04:23:41.318Z,103427.19
2019-03-29T04:26:10.548Z,103426.73
2019-03-29T04:28:39.206Z,103423.69
2019-03-29T04:31:08.099Z,103423.27
2019-03-29T04:33:36.812Z,103415.01
2019-03-29T04:36:06.228Z,103430.06
2019-03-29T04:38:35.414Z,103423.16
2019-03-29T04:41:05.186Z,103430.16
2019-03-29T04:43:33.834Z,103430.15
2019-03-29T04:46:02.558Z,103428.83
2019-03-29T04:48:31.386Z,103430.54
2019-03-29T04:51:00.275Z,103428.36
2019-03-29T04:53:28.982Z,103431.80
2019-03-29T04:55:57.873Z,103427.81
2019-03-29T04:58:26.726Z,103428.23
2019-03-29T05:00:55.422Z,103417.77
2019-03-29T05:03:25.363Z,103420.42
2019-03-29T05:05:54.178Z,103419.13
2019-03-29T05:08:22.843Z,103420.56
2019-03-29T05:10:51.957Z,103422.46
2019-03-29T05:13:20.959Z,103414.27
2019-03-29T05:15:49.656Z,103425.14
2019-03-29T05:18:18.519Z,103434.25
2019-03-29T05:20:47.634Z,103423.02
2019-03-29T05:23:16.311Z,103423.39
2019-03-29T05:25:45.106Z,103428.59
2019-03-29T05:28:14.014Z,103424.23
2019-03-29T05:30:42.699Z,103412.44
2019-03-29T05:33:11.483Z,103419.85
2019-03-29T05:35:40.373Z,103416.30
2019-03-29T05:38:09.704Z,103411.56
2019-03-29T05:40:38.388Z,103421.52
2019-03-29T05:43:07.156Z,103415.92
2019-03-29T05:45:36.062Z,103415.64
2019-03-29T05:48:04.744Z,103412.67
2019-03-29T05:50:36.604Z,103406.16
2019-03-29T05:53:04.176Z,103417.50
2019-03-29T05:55:33.203Z,103423.50
2019-03-29T05:58:02.173Z,103418.72
2019-03-29T06:00:30.960Z,103418.38
2019-03-29T06:02:59.875Z,103413.27
2019-03-29T06:05:28.573Z,103405.45
2019-03-29T06:07:57.274Z,103418.55
2019-03-29T06:10:26.129Z,103410.34
2019-03-29T06:12:55.558Z,103413.84
2019-03-29T06:15:24.383Z,103400.91
2019-03-29T06:17:53.225Z,103404.50
2019-03-29T06:20:21.936Z,103397.19
2019-03-29T06:22:50.627Z,103398.13
2019-03-29T06:25:19.516Z,103395.22
2019-03-29T06:27:48.224Z,103395.71
2019-03-29T06:30:28.517Z,103406.18
2019-03-29T06:32:57.555Z,103400.66
2019-03-29T06:35:30.876Z,103399.78
2019-03-29T06:38:03.495Z,103400.73
2019-03-29T06:40:32.665Z,103396.05
2019-03-29T06:43:02.857Z,103394.81
2019-03-29T06:45:31.932Z,103391.88
2019-03-29T06:48:00.799Z,103398.42
2019-03-29T06:50:29.785Z,103395.00
2019-03-29T06:53:00.435Z,103388.95
2019-03-29T06:55:32.701Z,103390.28
2019-03-29T06:58:06.040Z,103381.60
2019-03-29T07:00:36.923Z,103380.30
2019-03-29T07:03:06.871Z,103371.61
2019-03-29T07:05:35.631Z,103377.25
2019-03-29T07:08:05.762Z,103372.03
2019-03-29T07:10:34.555Z,103374.19
2019-03-29T07:13:03.222Z,103379.36
2019-03-29T07:15:38.583Z,103384.06
2019-03-29T07:18:07.274Z,103379.23
2019-03-29T07:20:36.060Z,103381.78
2019-03-29T07:23:05.010Z,103382.63
2019-03-29T07:25:33.822Z,103379.95
2019-03-29T07:28:02.503Z,103375.05
2019-03-29T07:30:31.500Z,103373.13
2019-03-29T07:33:00.185Z,103372.05
2019-03-29T07:35:29.073Z,103368.41
2019-03-29T07:37:58.073Z,103367.53
2019-03-29T07:40:26.742Z,103369.55
2019-03-29T07:42:55.557Z,103374.20
2019-03-29T07:45:24.237Z,103371.48
2019-03-29T07:47:53.150Z,103366.14
2019-03-29T07:50:22.034Z,103361.70
2019-03-29T07:52:50.790Z,103363.81
2019-03-29T07:55:19.673Z,103371.08
2019-03-29T07:57:48.528Z,103359.59
2019-03-29T08:00:20.307Z,103352.35
2019-03-29T08:02:47.921Z,103360.25
2019-03-29T08:05:17.935Z,103361.69
2019-03-29T08:07:46.824Z,103357.86
2019-03-29T08:10:25.865Z,103355.78
2019-03-29T08:12:46.221Z,103356.62
2019-03-29T08:15:14.899Z,103348.23
2019-03-29T08:17:46.358Z,103345.30
2019-03-29T08:20:38.202Z,103355.16
2019-03-29T08:22:45.760Z,103357.05
2019-03-29T08:25:14.661Z,103347.11
2019-03-29T08:27:43.338Z,103341.60
2019-03-29T08:30:14.109Z,103345.12
2019-03-29T08:32:42.970Z,103344.98
2019-03-29T08:35:11.633Z,103342.33
2019-03-29T08:37:42.243Z,103343.65
2019-03-29T08:40:11.255Z,103333.85
2019-03-29T08:42:40.186Z,103336.38
2019-03-29T08:45:09.496Z,103335.75
2019-03-29T08:47:38.178Z,103331.69
2019-03-29T08:50:07.739Z,103334.73
2019-03-29T08:52:36.415Z,103332.48
2019-03-29T08:55:05.257Z,103328.05
2019-03-29T08:57:34.091Z,103323.60
2019-03-29T09:00:03.168Z,103324.86
2019-03-29T09:02:32.252Z,103321.09
2019-03-29T09:05:02.063Z,103321.03
2019-03-29T09:07:43.980Z,103320.95
2019-03-29T09:10:04.980Z,103316.20
2019-03-29T09:12:36.764Z,103315.32
2019-03-29T09:15:06.150Z,103311.30
2019-03-29T09:17:35.060Z,103304.81
2019-03-29T09:20:03.818Z,103302.98
2019-03-29T09:22:33.692Z,103305.47
2019-03-29T09:25:02.554Z,103305.61
2019-03-29T09:27:32.094Z,103308.96
2019-03-29T09:30:01.091Z,103306.38
2019-03-29T09:32:29.906Z,103304.43
2019-03-29T09:34:58.626Z,103305.53
2019-03-29T09:37:27.324Z,103305.91
2019-03-29T09:39:56.243Z,103304.84
2019-03-29T09:42:29.568Z,103300.65
2019-03-29T09:44:55.484Z,103291.94
2019-03-29T09:47:24.363Z,103283.56
2019-03-29T09:49:53.047Z,103271.55
2019-03-29T09:52:21.833Z,103276.70
2019-03-29T09:54:53.864Z,103275.72
2019-03-29T09:57:21.361Z,103274.04
2019-03-29T09:59:50.250Z,103269.53
2019-03-29T10:02:19.635Z,103268.59
2019-03-29T10:04:48.767Z,103264.20
2019-03-29T10:07:17.605Z,103264.17
2019-03-29T10:09:46.741Z,103256.23
2019-03-29T10:12:21.536Z,103258.05
2019-03-29T10:14:50.772Z,103249.09
2019-03-29T10:17:19.586Z,103244.95
2019-03-29T10:19:50.038Z,103243.56
2019-03-29T10:22:19.543Z,103235.77
2019-03-29T10:24:48.273Z,103232.48
2019-03-29T10:27:19.002Z,103235.63
2019-03-29T10:29:49.332Z,103220.48
2019-03-29T10:32:18.161Z,103214.28
2019-03-29T10:34:50.521Z,103208.12
2019-03-29T10:37:19.519Z,103206.34
2019-03-29T10:39:48.691Z,103205.23
2019-03-29T10:42:23.262Z,103200.52
2019-03-29T10:44:52.332Z,103204.75
2019-03-29T10:47:42.301Z,103203.92
2019-03-29T10:50:03.270Z,103208.63
2019-03-29T10:52:32.304Z,103198.31
2019-03-29T10:55:04.125Z,103191.64
2019-03-29T10:57:34.560Z,103186.91
2019-03-29T11:00:07.337Z,103185.20
2019-03-29T11:02:36.182Z,103177.70
2019-03-29T11:05:07.284Z,103176.63
2019-03-29T11:07:37.499Z,103178.79
2019-03-29T11:10:08.862Z,103173.73
2019-03-29T11:12:37.804Z,103163.41
2019-03-29T11:15:07.321Z,103158.56
2019-03-29T11:17:36.430Z,103148.11
2019-03-29T11:20:08.995Z,103154.20
2019-03-29T11:22:37.861Z,103145.24
2019-03-29T11:25:07.227Z,103145.30
2019-03-29T11:27:37.388Z,103143.28
2019-03-29T11:30:06.891Z,103132.75
2019-03-29T11:32:37.510Z,103132.20
2019-03-29T11:35:06.716Z,103129.97
2019-03-29T11:37:39.632Z,103133.72
2019-03-29T11:40:11.123Z,103123.92
2019-03-29T11:42:39.983Z,103120.41
2019-03-29T11:45:13.894Z,103111.73
2019-03-29T11:47:43.329Z,103112.58
2019-03-29T11:50:12.678Z,103125.64
2019-03-29T11:52:43.525Z,103115.19
2019-03-29T11:55:12.299Z,103099.34
2019-03-29T11:57:42.700Z,103090.38
2019-03-29T12:00:22.717Z,103098.20
2019-03-29T12:05:30.307Z,103098.09
2019-03-29T12:07:59.438Z,103093.05
2019-03-29T12:10:30.239Z,103081.92
2019-03-29T12:13:01.212Z,103081.55
2019-03-29T12:15:37.526Z,103078.81
2019-03-29T12:18:07.330Z,103079.41
2019-03-29T12:20:39.228Z,103074.30
2019-03-29T12:23:08.935Z,103074.02
2019-03-29T12:25:39.681Z,103066.41
2019-03-29T12:28:08.650Z,103062.20
2019-03-29T12:30:38.754Z,103062.61
2019-03-29T12:33:09.797Z,103066.16
2019-03-29T12:35:38.574Z,103063.67
2019-03-29T12:38:08.420Z,103058.42
2019-03-29T12:40:37.502Z,103054.48
2019-03-29T12:43:06.158Z,103052.30
2019-03-29T12:45:34.917Z,103047.76
2019-03-29T12:48:04.449Z,103046.70
2019-03-29T12:50:35.061Z,103041.26
2019-03-29T12:53:04.004Z,103039.94
2019-03-29T12:55:32.958Z,103041.75
2019-03-29T12:58:04.250Z,103019.66
2019-03-29T13:00:34.975Z,103022.64
2019-03-29T13:03:05.277Z,103012.25
2019-03-29T13:05:34.201Z,103004.25
2019-03-29T13:08:03.430Z,103003.21
2019-03-29T13:10:32.246Z,102995.73
2019-03-29T13:13:02.470Z,102991.70
2019-03-29T13:15:32.335Z,102985.31
2019-03-29T13:18:01.069Z,102984.70
2019-03-29T13:20:30.013Z,102972.73
2019-03-29T13:22:58.933Z,102974.08
2019-03-29T13:25:29.158Z,102965.53
2019-03-29T13:27:59.494Z,102966.53
2019-03-29T13:30:29.508Z,102964.63
2019-03-29T13:33:01.108Z,102961.16
2019-03-29T13:35:29.916Z,102950.58
2019-03-29T13:37:58.802Z,102941.19
2019-03-29T13:40:27.873Z,102938.78
2019-03-29T13:42:57.020Z,102936.23
2019-03-29T13:45:27.868Z,102932.56
2019-03-29T13:47:56.272Z,102927.41
2019-03-29T13:50:27.172Z,102921.49
2019-03-29T13:52:55.886Z,102917.64
2019-03-29T13:55:24.890Z,102908.27
2019-03-29T13:57:57.211Z,102905.80
2019-03-29T14:00:25.869Z,102895.64
2019-03-29T14:02:54.826Z,102893.83
2019-03-29T14:05:27.101Z,102886.63
2019-03-29T14:07:55.917Z,102881.54
2019-03-29T14:10:25.109Z,102885.94
2019-03-29T14:12:53.888Z,102874.08
2019-03-29T14:15:24.282Z,102873.16
2019-03-29T14:17:55.500Z,102865.30
2019-03-29T14:20:35.025Z,102857.97
2019-03-29T14:23:05.036Z,102859.07
2019-03-29T14:25:34.298Z,102857.41
2019-03-29T14:28:06.337Z,102852.05
2019-03-29T14:30:35.576Z,102845.77
2019-03-29T14:33:04.705Z,102853.41
2019-03-29T14:35:33.471Z,102851.91
2019-03-29T14:38:02.541Z,102843.95
2019-03-29T14:40:31.551Z,102845.02
2019-03-29T14:43:03.286Z,102845.05
2019-03-29T14:45:32.388Z,102846.06
2019-03-29T14:48:03.551Z,102841.67
2019-03-29T14:50:35.941Z,102844.45
2019-03-29T14:53:06.187Z,102833.64
2019-03-29T14:55:35.163Z,102834.52
2019-03-29T14:58:05.101Z,102831.84
2019-03-29T15:00:42.360Z,102831.53
2019-03-29T15:03:14.424Z,102826.67
2019-03-29T15:05:43.148Z,102818.40
2019-03-29T15:08:13.885Z,102821.98
2019-03-29T15:10:45.641Z,102813.45
2019-03-29T15:13:13.457Z,102812.23
2019-03-29T15:15:43.485Z,102797.62
2019-03-29T15:18:15.064Z,102808.07
2019-03-29T15:20:53.479Z,102803.73
2019-03-29T15:23:17.818Z,102805.40
2019-03-29T15:25:49.673Z,102797.29
2019-03-29T15:28:18.539Z,102794.80
2019-03-29T15:30:47.861Z,102795.22
2019-03-29T15:33:16.831Z,102792.92
2019-03-29T15:35:45.864Z,102787.15
2019-03-29T15:38:14.650Z,102793.50
2019-03-29T15:40:43.834Z,102790.67
2019-03-29T15:43:12.820Z,102783.12
2019-03-29T15:45:42.811Z,102784.83
2019-03-29T15:48:11.516Z,102775.84
2019-03-29T15:50:41.722Z,102771.87
2019-03-29T15:53:10.487Z,102762.83
2019-03-29T15:55:39.343Z,102757.17
2019-03-29T15:58:08.815Z,102750.47
2019-03-29T16:00:40.818Z,102758.64
2019-03-29T16:03:14.390Z,102754.20
2019-03-29T16:05:48.377Z,102754.50
2019-03-29T16:08:16.594Z,102755.34
2019-03-29T16:10:47.580Z,102741.44
2019-03-29T16:13:16.672Z,102750.18
2019-03-29T16:15:48.859Z,102744.55
2019-03-29T16:18:19.229Z,102742.70
2019-03-29T16:20:48.161Z,102740.47
2019-03-29T16:23:17.193Z,102737.40
2019-03-29T16:25:46.076Z,102733.86
2019-03-29T16:28:14.980Z,102733.66
2019-03-29T16:30:43.844Z,102738.19
2019-03-29T16:33:12.824Z,102740.62
2019-03-29T16:35:44.467Z,102733.48
2019-03-29T16:38:13.402Z,102734.70
2019-03-29T16:40:43.729Z,102730.63
2019-03-29T16:43:12.556Z,102722.77
2019-03-29T16:45:48.204Z,102722.67
2019-03-29T16:48:13.419Z,102718.48
2019-03-29T16:50:43.746Z,102717.59
2019-03-29T16:53:12.885Z,102717.22
2019-03-29T16:55:42.127Z,102711.22
2019-03-29T16:58:10.971Z,102703.20
2019-03-29T17:00:43.405Z,102709.00
2019-03-29T17:03:12.359Z,102708.99
2019-03-29T17:05:43.139Z,102706.25
2019-03-29T17:08:13.518Z,102706.45
2019-03-29T17:10:44.014Z,102704.34
2019-03-29T17:13:13.093Z,102701.73
2019-03-29T17:15:44.655Z,102699.52
2019-03-29T17:18:14.675Z,102701.47
2019-03-29T17:20:43.696Z,102702.62
2019-03-29T17:23:13.720Z,102691.43
2019-03-29T17:25:45.282Z,102697.55
2019-03-29T17:28:14.135Z,102693.98
2019-03-29T17:30:51.046Z,102690.84
2019-03-29T17:33:22.557Z,102689.12
2019-03-29T17:35:53.696Z,102682.41
2019-03-29T17:38:22.711Z,102687.26
2019-03-29T17:40:52.922Z,102690.45
2019-03-29T17:43:23.180Z,102691.44
2019-03-29T17:45:51.964Z,102685.34
2019-03-29T17:48:20.833Z,102684.55
2019-03-29T17:50:49.511Z,102689.87
2019-03-29T17:53:23.265Z,102682.05
2019-03-29T17:55:52.143Z,102685.13
2019-03-29T17:58:20.821Z,102679.76
2019-03-29T18:00:49.626Z,102682.47
2019-03-29T18:03:19.919Z,102682.83
2019-03-29T18:05:48.720Z,102678.42
2019-03-29T18:08:20.790Z,102676.06
2019-03-29T18:10:49.481Z,102676.23
2019-03-29T18:13:21.905Z,102678.87
2019-03-29T18:15:50.859Z,102680.38
2019-03-29T18:18:19.883Z,102680.64
2019-03-29T18:20:48.593Z,102680.52
2019-03-29T18:23:18.562Z,102680.44
2019-03-29T18:25:47.255Z,102677.88
2019-03-29T18:28:15.932Z,102674.28
2019-03-29T18:30:44.816Z,102672.94
2019-03-29T18:33:14.412Z,102676.31
2019-03-29T18:35:46.706Z,102673.30
2019-03-29T18:38:15.701Z,102669.26
2019-03-29T18:40:44.479Z,102671.92
2019-03-29T18:43:13.245Z,102678.47
2019-03-29T18:45:42.576Z,102674.77
2019-03-29T18:48:11.627Z,102679.10
2019-03-29T18:50:40.384Z,102682.89
2019-03-29T18:55:46.998Z,102691.78
2019-03-29T18:58:15.849Z,102686.69
2019-03-29T19:00:44.508Z,102679.08
2019-03-29T19:03:13.326Z,102683.85
2019-03-29T19:05:41.993Z,102690.45
2019-03-29T19:08:10.849Z,102683.36
2019-03-29T19:10:39.598Z,102687.22
2019-03-29T19:13:08.366Z,102689.51
2019-03-29T19:15:37.226Z,102689.66
2019-03-29T19:18:06.099Z,102689.84
2019-03-29T19:20:34.773Z,102698.08
2019-03-29T19:23:03.470Z,102695.69
2019-03-29T19:25:32.391Z,102696.66
2019-03-29T19:28:01.164Z,102696.02
2019-03-29T19:30:30.103Z,102693.03
2019-03-29T19:32:59.167Z,102697.57
2019-03-29T19:35:27.826Z,102693.47
2019-03-29T19:37:56.655Z,102690.48
2019-03-29T19:40:25.484Z,102684.02
2019-03-29T19:42:54.449Z,102685.87
2019-03-29T19:45:24.535Z,102682.17
2019-03-29T19:47:53.281Z,102682.48
2019-03-29T19:50:22.485Z,102684.33
2019-03-29T19:52:51.314Z,102682.91
2019-03-29T19:55:20.261Z,102685.46
2019-03-29T19:57:49.313Z,102691.21
2019-03-29T20:00:21.248Z,102688.09
2019-03-29T20:02:50.128Z,102696.62
2019-03-29T20:05:26.737Z,102702.78
2019-03-29T20:07:56.320Z,102691.71
2019-03-29T20:10:25.449Z,102695.89
2019-03-29T20:12:54.315Z,102690.79
2019-03-29T20:15:23.403Z,102691.92
2019-03-29T20:17:52.474Z,102691.20
2019-03-29T20:20:25.787Z,102690.52
2019-03-29T20:22:57.965Z,102690.58
2019-03-29T20:25:26.759Z,102687.95
2019-03-29T20:27:58.342Z,102690.22
2019-03-29T20:30:26.817Z,102687.37
2019-03-29T20:32:56.826Z,102690.12
2019-03-29T20:35:25.954Z,102685.92
2019-03-29T20:37:54.677Z,102685.55
2019-03-29T20:40:23.707Z,102684.07
2019-03-29T20:42:52.419Z,102684.29
2019-03-29T20:45:21.121Z,102677.72
2019-03-29T20:47:52.010Z,102676.81
2019-03-29T20:50:21.034Z,102680.01
2019-03-29T20:52:49.972Z,102678.23
2019-03-29T20:55:18.961Z,102666.89
2019-03-29T20:57:47.679Z,102676.75
2019-03-29T21:00:18.287Z,102668.50
2019-03-29T21:02:46.985Z,102662.47
2019-03-29T21:05:15.860Z,102664.40
2019-03-29T21:07:44.717Z,102661.08
2019-03-29T21:10:15.307Z,102665.76
2019-03-29T21:12:44.515Z,102663.13
2019-03-29T21:15:15.557Z,102657.09
2019-03-29T21:17:55.995Z,102659.08
2019-03-29T21:20:15.415Z,102656.22
2019-03-29T21:22:44.229Z,102658.00
2019-03-29T21:25:13.226Z,102653.28
2019-03-29T21:27:42.015Z,102652.34
2019-03-29T21:30:11.870Z,102648.54
2019-03-29T21:32:40.881Z,102643.68
2019-03-29T21:35:09.935Z,102642.23
2019-03-29T21:37:38.637Z,102644.26
2019-03-29T21:40:08.351Z,102638.54
2019-03-29T21:42:38.842Z,102640.70
2019-03-29T21:45:08.469Z,102638.17
2019-03-29T21:47:37.256Z,102631.25
2019-03-29T21:50:07.762Z,102630.13
2019-03-29T21:52:36.861Z,102641.03
2019-03-29T21:55:06.776Z,102631.75
2019-03-29T21:57:35.592Z,102637.47
2019-03-29T22:00:07.731Z,102629.41
2019-03-29T22:02:36.663Z,102627.06
2019-03-29T22:05:10.171Z,102624.55
2019-03-29T22:07:37.674Z,102629.93
2019-03-29T22:10:08.054Z,102624.45
2019-03-29T22:12:37.272Z,102621.74
2019-03-29T22:15:07.364Z,102625.91
2019-03-29T22:17:36.068Z,102625.11
2019-03-29T22:20:05.657Z,102619.48
2019-03-29T22:22:34.606Z,102616.25
2019-03-29T22:25:04.130Z,102617.66
2019-03-29T22:27:32.982Z,102622.98
2019-03-29T22:30:01.680Z,102618.17
2019-03-29T22:32:30.613Z,102608.80
2019-03-29T22:34:59.272Z,102608.80
2019-03-29T22:37:27.976Z,102608.89
2019-03-29T22:39:56.834Z,102602.89
2019-03-29T22:42:25.509Z,102606.58
2019-03-29T22:44:54.325Z,102598.63
2019-03-29T22:47:22.996Z,102590.64
2019-03-29T22:49:51.731Z,102591.57
2019-03-29T22:52:20.811Z,102589.79
2019-03-29T22:54:49.809Z,102588.80
2019-03-29T22:57:18.508Z,102588.41
2019-03-29T22:59:47.277Z,102584.02
2019-03-29T23:02:16.503Z,102585.33
2019-03-29T23:04:45.198Z,102579.30
2019-03-29T23:07:13.858Z,102582.46
2019-03-29T23:09:42.770Z,102579.20
2019-03-29T23:12:11.476Z,102581.22
2019-03-29T23:14:40.370Z,102575.90
2019-03-29T23:17:09.063Z,102574.67
2019-03-29T23:19:37.951Z,102569.11
2019-03-29T23:22:06.640Z,102563.86
2019-03-29T23:24:35.351Z,102565.13
2019-03-29T23:27:04.202Z,102563.78
2019-03-29T23:29:32.889Z,102562.09
2019-03-29T23:32:01.572Z,102561.53
2019-03-29T23:34:30.364Z,102555.50
2019-03-29T23:36:59.055Z,102547.81
2019-03-29T23:39:27.721Z,102544.16
2019-03-29T23:41:56.684Z,102543.80
2019-03-29T23:44:25.556Z,102531.78
2019-03-29T23:46:54.231Z,102533.98
2019-03-29T23:49:23.054Z,102536.28
2019-03-29T23:51:51.712Z,102533.76
2019-03-29T23:54:20.516Z,102534.97
2019-03-29T23:56:49.359Z,102527.86
2019-03-29T23:59:18.142Z,102529.22
